PAVD Airport Information

Runway Information
Runway 06 Length 6508 ft width 150 ft
Elevation 39 ft Threshold 0 ft Heading 81
Runway 24 Length 6508 ft Width 150 ft
Elevation 118 ft Threshold 0 ft Heading 261
Airport Frequencies
Type AWOS Name AWOS 3 Frequency 118.8 MHZ
Type CNTR Name ANCHORAGE Frequency 119.3 MHZ
Type CTAF Name CTAF Frequency 122.9 MHZ
Type FSS Name JUNEAU RDO Frequency 122.2 MHZ
Airport Navaids
Type NDB Name Mineral Creek Frequency 524 KHZ
Airport Weather Information & NOTAM
ADDS - METARS form results

(0758 UTC 22 January 2019)
Data provider http://aviationweather.gov/metar/data/
 
Forecast for: PAVD (VALDEZ , AK, US)
Text: PAVD 220522Z 2206/2306 VRB03KT 1 1/2SM -SHSN BKN025 OVC035
Forecast period: 0600 UTC 22 January 2019 to 0600 UTC 23 January 2019
Forecast type: FROM: standard forecast or significant change
Winds: variable direction winds at 3 MPH (3 knots; 1.5 m/s)
Visibility: 1.50 miles (2.41 km)
Ceiling: 2500 feet AGL
Clouds: broken clouds at 2500 feet AGL
overcast cloud deck at 3500 feet AGL
Weather: -SHSN  (light snow showers)
Text: TEMPO 2206/2210 5SM -SN SCT025 OVC050 AMD LTD TO CLD VIS AND WIND
Forecast period: 0600 to 1000 UTC 22 January 2019
Forecast type: TEMPORARY: The following changes expected for less than half the time period
Visibility: 5 miles (8 km)
Ceiling: 5000 feet AGL
Clouds: scattered clouds at 2500 feet AGL
overcast cloud deck at 5000 feet AGL
Weather: -SN  (light snow)